sensor_id;sensor_type;location;lat;lon;timestamp;P1;durP1;ratioP1;P2;durP2;ratioP2
6495;SDS011;3281;47.658;9.166;2022-10-29T00:00:00;2.07;;;1.97;;
6495;SDS011;3281;47.658;9.166;2022-10-29T00:02:26;10.90;;;2.67;;
6495;SDS011;3281;47.658;9.166;2022-10-29T00:04:54;1.40;;;1.30;;
6495;SDS011;3281;47.658;9.166;2022-10-29T00:07:21;1.33;;;1.20;;
6495;SDS011;3281;47.658;9.166;2022-10-29T00:09:48;0.97;;;0.97;;
6495;SDS011;3281;47.658;9.166;2022-10-29T00:12:15;1.10;;;1.10;;
6495;SDS011;3281;47.658;9.166;2022-10-29T00:14:41;1.33;;;1.33;;
6495;SDS011;3281;47.658;9.166;2022-10-29T00:17:08;1.30;;;1.30;;
6495;SDS011;3281;47.658;9.166;2022-10-29T00:19:35;1.87;;;1.77;;
6495;SDS011;3281;47.658;9.166;2022-10-29T00:22:03;1.53;;;1.43;;
6495;SDS011;3281;47.658;9.166;2022-10-29T00:24:29;1.50;;;1.50;;
6495;SDS011;3281;47.658;9.166;2022-10-29T00:26:56;1.73;;;1.67;;
6495;SDS011;3281;47.658;9.166;2022-10-29T00:29:23;1.63;;;1.53;;
6495;SDS011;3281;47.658;9.166;2022-10-29T00:31:49;1.23;;;1.13;;
6495;SDS011;3281;47.658;9.166;2022-10-29T00:34:16;2.13;;;2.03;;
6495;SDS011;3281;47.658;9.166;2022-10-29T00:36:43;1.63;;;1.33;;
6495;SDS011;3281;47.658;9.166;2022-10-29T00:41:41;1.50;;;1.40;;
6495;SDS011;3281;47.658;9.166;2022-10-29T00:44:21;1.57;;;1.47;;
6495;SDS011;3281;47.658;9.166;2022-10-29T00:46:54;1.10;;;1.10;;
6495;SDS011;3281;47.658;9.166;2022-10-29T00:49:26;0.80;;;0.80;;
6495;SDS011;3281;47.658;9.166;2022-10-29T00:51:53;1.60;;;1.53;;
6495;SDS011;3281;47.658;9.166;2022-10-29T00:54:22;2.83;;;2.63;;
6495;SDS011;3281;47.658;9.166;2022-10-29T00:56:49;2.07;;;1.97;;
6495;SDS011;3281;47.658;9.166;2022-10-29T00:59:21;2.23;;;1.03;;
6495;SDS011;3281;47.658;9.166;2022-10-29T01:01:47;1.23;;;1.23;;
6495;SDS011;3281;47.658;9.166;2022-10-29T01:04:15;1.87;;;1.77;;
6495;SDS011;3281;47.658;9.166;2022-10-29T01:06:42;2.10;;;2.00;;
6495;SDS011;3281;47.658;9.166;2022-10-29T01:09:10;2.43;;;1.50;;
6495;SDS011;3281;47.658;9.166;2022-10-29T01:11:40;1.60;;;1.50;;
6495;SDS011;3281;47.658;9.166;2022-10-29T01:14:20;2.73;;;1.30;;
6495;SDS011;3281;47.658;9.166;2022-10-29T01:16:58;0.00;;;0.00;;
6495;SDS011;3281;47.658;9.166;2022-10-29T01:19:42;0.00;;;0.00;;
6495;SDS011;3281;47.658;9.166;2022-10-29T01:22:34;0.00;;;0.00;;
6495;SDS011;3281;47.658;9.166;2022-10-29T01:25:15;0.00;;;0.00;;
6495;SDS011;3281;47.658;9.166;2022-10-29T01:28:04;0.03;;;0.03;;
6495;SDS011;3281;47.658;9.166;2022-10-29T01:30:56;0.13;;;0.13;;
6495;SDS011;3281;47.658;9.166;2022-10-29T01:33:35;1.70;;;1.60;;
6495;SDS011;3281;47.658;9.166;2022-10-29T01:36:10;1.97;;;1.87;;
6495;SDS011;3281;47.658;9.166;2022-10-29T01:38:44;2.10;;;2.00;;
6495;SDS011;3281;47.658;9.166;2022-10-29T01:41:19;3.27;;;2.50;;
6495;SDS011;3281;47.658;9.166;2022-10-29T01:43:51;2.23;;;1.67;;
6495;SDS011;3281;47.658;9.166;2022-10-29T01:46:23;1.60;;;1.53;;
6495;SDS011;3281;47.658;9.166;2022-10-29T01:48:55;2.00;;;1.17;;
6495;SDS011;3281;47.658;9.166;2022-10-29T01:51:27;0.90;;;0.90;;
6495;SDS011;3281;47.658;9.166;2022-10-29T01:53:56;1.00;;;1.00;;
6495;SDS011;3281;47.658;9.166;2022-10-29T01:56:25;1.17;;;1.17;;
6495;SDS011;3281;47.658;9.166;2022-10-29T01:58:53;2.83;;;1.97;;
6495;SDS011;3281;47.658;9.166;2022-10-29T02:01:29;3.00;;;2.50;;
6495;SDS011;3281;47.658;9.166;2022-10-29T02:04:08;1.00;;;1.00;;
6495;SDS011;3281;47.658;9.166;2022-10-29T02:06:47;17.80;;;1.50;;
6495;SDS011;3281;47.658;9.166;2022-10-29T02:09:21;1.97;;;1.87;;
6495;SDS011;3281;47.658;9.166;2022-10-29T02:11:57;1.10;;;1.10;;
6495;SDS011;3281;47.658;9.166;2022-10-29T02:14:29;2.83;;;2.10;;
6495;SDS011;3281;47.658;9.166;2022-10-29T02:17:00;5.40;;;1.70;;
6495;SDS011;3281;47.658;9.166;2022-10-29T02:19:28;1.93;;;1.57;;
6495;SDS011;3281;47.658;9.166;2022-10-29T02:21:55;1.07;;;1.03;;
6495;SDS011;3281;47.658;9.166;2022-10-29T02:24:22;2.77;;;1.80;;
6495;SDS011;3281;47.658;9.166;2022-10-29T02:26:49;1.50;;;1.50;;
6495;SDS011;3281;47.658;9.166;2022-10-29T02:29:16;1.23;;;1.23;;
6495;SDS011;3281;47.658;9.166;2022-10-29T02:31:43;2.23;;;2.13;;
6495;SDS011;3281;47.658;9.166;2022-10-29T02:34:11;0.90;;;0.90;;
6495;SDS011;3281;47.658;9.166;2022-10-29T02:36:38;4.03;;;1.67;;
6495;SDS011;3281;47.658;9.166;2022-10-29T02:39:05;1.83;;;1.73;;
6495;SDS011;3281;47.658;9.166;2022-10-29T02:41:31;2.23;;;1.97;;
6495;SDS011;3281;47.658;9.166;2022-10-29T02:43:58;6.07;;;1.27;;
6495;SDS011;3281;47.658;9.166;2022-10-29T02:46:25;1.80;;;1.53;;
6495;SDS011;3281;47.658;9.166;2022-10-29T02:48:51;1.50;;;1.40;;
6495;SDS011;3281;47.658;9.166;2022-10-29T02:51:20;1.90;;;1.43;;
6495;SDS011;3281;47.658;9.166;2022-10-29T02:53:46;2.93;;;1.60;;
6495;SDS011;3281;47.658;9.166;2022-10-29T02:56:13;2.17;;;2.07;;
6495;SDS011;3281;47.658;9.166;2022-10-29T02:58:40;1.93;;;1.83;;
6495;SDS011;3281;47.658;9.166;2022-10-29T03:01:06;4.43;;;2.83;;
6495;SDS011;3281;47.658;9.166;2022-10-29T03:03:33;1.47;;;1.47;;
6495;SDS011;3281;47.658;9.166;2022-10-29T03:06:01;1.83;;;1.73;;
6495;SDS011;3281;47.658;9.166;2022-10-29T03:08:29;2.03;;;1.93;;
6495;SDS011;3281;47.658;9.166;2022-10-29T03:10:55;1.20;;;1.20;;
6495;SDS011;3281;47.658;9.166;2022-10-29T03:13:22;3.63;;;2.43;;
6495;SDS011;3281;47.658;9.166;2022-10-29T03:15:49;1.60;;;1.50;;
6495;SDS011;3281;47.658;9.166;2022-10-29T03:18:15;1.03;;;1.03;;
6495;SDS011;3281;47.658;9.166;2022-10-29T03:20:42;1.90;;;1.80;;
6495;SDS011;3281;47.658;9.166;2022-10-29T03:23:11;1.50;;;1.50;;
6495;SDS011;3281;47.658;9.166;2022-10-29T03:25:39;2.90;;;1.53;;
6495;SDS011;3281;47.658;9.166;2022-10-29T03:28:06;1.10;;;1.10;;
6495;SDS011;3281;47.658;9.166;2022-10-29T03:30:33;2.63;;;2.30;;
6495;SDS011;3281;47.658;9.166;2022-10-29T03:33:00;1.00;;;0.93;;
6495;SDS011;3281;47.658;9.166;2022-10-29T03:35:26;3.37;;;1.67;;
6495;SDS011;3281;47.658;9.166;2022-10-29T03:37:53;1.80;;;1.70;;
6495;SDS011;3281;47.658;9.166;2022-10-29T03:40:20;1.93;;;1.77;;
6495;SDS011;3281;47.658;9.166;2022-10-29T03:42:48;2.93;;;1.40;;
6495;SDS011;3281;47.658;9.166;2022-10-29T03:45:15;1.63;;;1.53;;
6495;SDS011;3281;47.658;9.166;2022-10-29T03:47:41;1.90;;;1.80;;
6495;SDS011;3281;47.658;9.166;2022-10-29T03:50:08;5.13;;;2.57;;
6495;SDS011;3281;47.658;9.166;2022-10-29T03:52:35;1.37;;;1.37;;
6495;SDS011;3281;47.658;9.166;2022-10-29T03:55:02;3.83;;;2.10;;
6495;SDS011;3281;47.658;9.166;2022-10-29T03:57:30;2.13;;;2.03;;
6495;SDS011;3281;47.658;9.166;2022-10-29T03:59:58;1.57;;;1.47;;
6495;SDS011;3281;47.658;9.166;2022-10-29T04:02:25;3.03;;;2.70;;
6495;SDS011;3281;47.658;9.166;2022-10-29T04:04:52;1.87;;;1.77;;
6495;SDS011;3281;47.658;9.166;2022-10-29T04:07:19;1.57;;;1.53;;
6495;SDS011;3281;47.658;9.166;2022-10-29T04:09:46;1.27;;;1.17;;
6495;SDS011;3281;47.658;9.166;2022-10-29T04:12:12;1.97;;;1.87;;
6495;SDS011;3281;47.658;9.166;2022-10-29T04:14:39;2.67;;;2.13;;
6495;SDS011;3281;47.658;9.166;2022-10-29T04:17:08;1.70;;;1.60;;
6495;SDS011;3281;47.658;9.166;2022-10-29T04:19:36;1.10;;;1.07;;
6495;SDS011;3281;47.658;9.166;2022-10-29T04:22:03;2.07;;;1.50;;
6495;SDS011;3281;47.658;9.166;2022-10-29T04:24:30;1.90;;;1.80;;
6495;SDS011;3281;47.658;9.166;2022-10-29T04:26:56;1.70;;;1.57;;
6495;SDS011;3281;47.658;9.166;2022-10-29T04:29:23;1.67;;;1.57;;
6495;SDS011;3281;47.658;9.166;2022-10-29T04:31:50;2.23;;;2.00;;
6495;SDS011;3281;47.658;9.166;2022-10-29T04:34:18;6.93;;;2.63;;
6495;SDS011;3281;47.658;9.166;2022-10-29T04:36:45;2.20;;;1.93;;
6495;SDS011;3281;47.658;9.166;2022-10-29T04:39:11;2.33;;;2.13;;
6495;SDS011;3281;47.658;9.166;2022-10-29T04:41:38;2.37;;;2.27;;
6495;SDS011;3281;47.658;9.166;2022-10-29T04:44:05;2.30;;;1.83;;
6495;SDS011;3281;47.658;9.166;2022-10-29T04:46:31;2.20;;;1.67;;
6495;SDS011;3281;47.658;9.166;2022-10-29T04:48:58;2.70;;;2.50;;
6495;SDS011;3281;47.658;9.166;2022-10-29T04:51:26;3.43;;;1.77;;
6495;SDS011;3281;47.658;9.166;2022-10-29T04:53:53;3.20;;;2.90;;
6495;SDS011;3281;47.658;9.166;2022-10-29T04:56:20;3.80;;;2.00;;
6495;SDS011;3281;47.658;9.166;2022-10-29T04:58:49;4.30;;;2.47;;
6495;SDS011;3281;47.658;9.166;2022-10-29T05:01:16;1.83;;;1.73;;
6495;SDS011;3281;47.658;9.166;2022-10-29T05:03:43;1.90;;;1.80;;
6495;SDS011;3281;47.658;9.166;2022-10-29T05:06:10;1.50;;;1.37;;
6495;SDS011;3281;47.658;9.166;2022-10-29T05:08:38;1.63;;;1.53;;
6495;SDS011;3281;47.658;9.166;2022-10-29T05:11:05;1.93;;;1.60;;
6495;SDS011;3281;47.658;9.166;2022-10-29T05:13:32;2.07;;;1.93;;
6495;SDS011;3281;47.658;9.166;2022-10-29T05:15:59;2.30;;;2.13;;
6495;SDS011;3281;47.658;9.166;2022-10-29T05:18:26;2.63;;;1.90;;
6495;SDS011;3281;47.658;9.166;2022-10-29T05:20:53;1.63;;;1.63;;
6495;SDS011;3281;47.658;9.166;2022-10-29T05:23:20;1.63;;;1.63;;
6495;SDS011;3281;47.658;9.166;2022-10-29T05:25:48;5.20;;;2.90;;
6495;SDS011;3281;47.658;9.166;2022-10-29T05:28:16;2.73;;;1.70;;
6495;SDS011;3281;47.658;9.166;2022-10-29T05:30:44;4.70;;;2.37;;
6495;SDS011;3281;47.658;9.166;2022-10-29T05:33:13;1.37;;;1.37;;
6495;SDS011;3281;47.658;9.166;2022-10-29T05:35:40;3.87;;;1.97;;
6495;SDS011;3281;47.658;9.166;2022-10-29T05:38:08;2.37;;;2.17;;
6495;SDS011;3281;47.658;9.166;2022-10-29T05:40:35;1.80;;;1.70;;
6495;SDS011;3281;47.658;9.166;2022-10-29T05:43:04;2.53;;;1.77;;
6495;SDS011;3281;47.658;9.166;2022-10-29T05:45:30;3.40;;;2.93;;
6495;SDS011;3281;47.658;9.166;2022-10-29T05:47:58;1.97;;;1.87;;
6495;SDS011;3281;47.658;9.166;2022-10-29T05:50:25;8.90;;;2.97;;
6495;SDS011;3281;47.658;9.166;2022-10-29T05:52:55;1.97;;;1.87;;
6495;SDS011;3281;47.658;9.166;2022-10-29T05:55:23;2.60;;;2.40;;
6495;SDS011;3281;47.658;9.166;2022-10-29T05:57:53;2.40;;;1.97;;
6495;SDS011;3281;47.658;9.166;2022-10-29T06:00:22;3.67;;;3.13;;
6495;SDS011;3281;47.658;9.166;2022-10-29T06:02:49;2.23;;;2.13;;
6495;SDS011;3281;47.658;9.166;2022-10-29T06:05:16;1.27;;;1.17;;
6495;SDS011;3281;47.658;9.166;2022-10-29T06:07:42;1.63;;;1.53;;
6495;SDS011;3281;47.658;9.166;2022-10-29T06:10:09;7.53;;;2.37;;
6495;SDS011;3281;47.658;9.166;2022-10-29T06:12:36;3.80;;;1.30;;
6495;SDS011;3281;47.658;9.166;2022-10-29T06:15:03;1.60;;;1.50;;
6495;SDS011;3281;47.658;9.166;2022-10-29T06:17:31;1.70;;;1.60;;
6495;SDS011;3281;47.658;9.166;2022-10-29T06:19:58;2.53;;;1.60;;
6495;SDS011;3281;47.658;9.166;2022-10-29T06:22:25;1.73;;;1.63;;
6495;SDS011;3281;47.658;9.166;2022-10-29T06:24:51;1.63;;;1.57;;
6495;SDS011;3281;47.658;9.166;2022-10-29T06:27:18;1.57;;;1.50;;
6495;SDS011;3281;47.658;9.166;2022-10-29T06:29:45;3.07;;;1.90;;
6495;SDS011;3281;47.658;9.166;2022-10-29T06:32:12;2.63;;;1.67;;
6495;SDS011;3281;47.658;9.166;2022-10-29T06:34:40;1.87;;;1.73;;
6495;SDS011;3281;47.658;9.166;2022-10-29T06:37:06;1.73;;;1.37;;
6495;SDS011;3281;47.658;9.166;2022-10-29T06:39:33;2.07;;;1.97;;
6495;SDS011;3281;47.658;9.166;2022-10-29T06:42:00;1.47;;;1.37;;
6495;SDS011;3281;47.658;9.166;2022-10-29T06:44:26;2.47;;;1.67;;
6495;SDS011;3281;47.658;9.166;2022-10-29T06:46:53;2.33;;;2.17;;
6495;SDS011;3281;47.658;9.166;2022-10-29T06:49:20;1.87;;;1.77;;
6495;SDS011;3281;47.658;9.166;2022-10-29T06:51:49;1.80;;;1.70;;
6495;SDS011;3281;47.658;9.166;2022-10-29T06:54:16;1.43;;;1.43;;
6495;SDS011;3281;47.658;9.166;2022-10-29T06:56:43;1.67;;;1.63;;
6495;SDS011;3281;47.658;9.166;2022-10-29T06:59:09;3.80;;;1.47;;
6495;SDS011;3281;47.658;9.166;2022-10-29T07:01:36;2.03;;;1.77;;
6495;SDS011;3281;47.658;9.166;2022-10-29T07:04:03;2.23;;;2.03;;
6495;SDS011;3281;47.658;9.166;2022-10-29T07:06:30;1.10;;;1.10;;
6495;SDS011;3281;47.658;9.166;2022-10-29T07:08:59;1.93;;;1.83;;
6495;SDS011;3281;47.658;9.166;2022-10-29T07:11:26;1.40;;;1.27;;
6495;SDS011;3281;47.658;9.166;2022-10-29T07:13:53;1.30;;;1.30;;
6495;SDS011;3281;47.658;9.166;2022-10-29T07:16:19;2.03;;;1.63;;
6495;SDS011;3281;47.658;9.166;2022-10-29T07:18:46;0.70;;;0.70;;
6495;SDS011;3281;47.658;9.166;2022-10-29T07:21:13;2.90;;;2.70;;
6495;SDS011;3281;47.658;9.166;2022-10-29T07:23:39;1.73;;;1.63;;
6495;SDS011;3281;47.658;9.166;2022-10-29T07:26:07;1.20;;;1.20;;
6495;SDS011;3281;47.658;9.166;2022-10-29T07:28:34;3.23;;;2.10;;
6495;SDS011;3281;47.658;9.166;2022-10-29T07:31:01;2.03;;;1.93;;
6495;SDS011;3281;47.658;9.166;2022-10-29T07:33:28;5.00;;;1.80;;
6495;SDS011;3281;47.658;9.166;2022-10-29T07:35:55;2.40;;;2.20;;
6495;SDS011;3281;47.658;9.166;2022-10-29T07:38:23;2.03;;;1.93;;
6495;SDS011;3281;47.658;9.166;2022-10-29T07:40:50;1.93;;;1.47;;
6495;SDS011;3281;47.658;9.166;2022-10-29T07:43:19;4.53;;;2.50;;
6495;SDS011;3281;47.658;9.166;2022-10-29T07:45:46;1.63;;;1.53;;
6495;SDS011;3281;47.658;9.166;2022-10-29T07:48:14;1.60;;;1.60;;
6495;SDS011;3281;47.658;9.166;2022-10-29T07:50:42;1.67;;;1.47;;
6495;SDS011;3281;47.658;9.166;2022-10-29T07:53:09;2.33;;;2.13;;
6495;SDS011;3281;47.658;9.166;2022-10-29T07:55:36;4.30;;;2.30;;
6495;SDS011;3281;47.658;9.166;2022-10-29T07:58:03;1.30;;;1.30;;
6495;SDS011;3281;47.658;9.166;2022-10-29T08:00:33;2.80;;;1.77;;
6495;SDS011;3281;47.658;9.166;2022-10-29T08:03:00;2.00;;;1.80;;
6495;SDS011;3281;47.658;9.166;2022-10-29T08:05:28;1.50;;;1.40;;
6495;SDS011;3281;47.658;9.166;2022-10-29T08:07:56;1.67;;;1.57;;
6495;SDS011;3281;47.658;9.166;2022-10-29T08:10:23;1.67;;;1.57;;
6495;SDS011;3281;47.658;9.166;2022-10-29T08:12:50;1.60;;;1.33;;
6495;SDS011;3281;47.658;9.166;2022-10-29T08:15:18;0.90;;;0.90;;
6495;SDS011;3281;47.658;9.166;2022-10-29T08:17:46;1.77;;;1.67;;
6495;SDS011;3281;47.658;9.166;2022-10-29T08:20:13;1.50;;;1.37;;
6495;SDS011;3281;47.658;9.166;2022-10-29T08:22:41;3.50;;;2.10;;
6495;SDS011;3281;47.658;9.166;2022-10-29T08:25:07;1.77;;;1.67;;
6495;SDS011;3281;47.658;9.166;2022-10-29T08:27:34;2.53;;;1.53;;
6495;SDS011;3281;47.658;9.166;2022-10-29T08:30:01;2.10;;;2.00;;
6495;SDS011;3281;47.658;9.166;2022-10-29T08:32:28;2.67;;;2.47;;
6495;SDS011;3281;47.658;9.166;2022-10-29T08:34:56;1.07;;;1.03;;
6495;SDS011;3281;47.658;9.166;2022-10-29T08:37:23;1.17;;;1.17;;
6495;SDS011;3281;47.658;9.166;2022-10-29T08:39:50;0.97;;;0.97;;
6495;SDS011;3281;47.658;9.166;2022-10-29T08:42:19;1.57;;;1.50;;
6495;SDS011;3281;47.658;9.166;2022-10-29T08:47:46;3.63;;;1.63;;
6495;SDS011;3281;47.658;9.166;2022-10-29T08:50:28;1.50;;;1.40;;
6495;SDS011;3281;47.658;9.166;2022-10-29T08:52:58;1.30;;;1.30;;
6495;SDS011;3281;47.658;9.166;2022-10-29T08:55:28;2.00;;;1.73;;
6495;SDS011;3281;47.658;9.166;2022-10-29T08:58:03;1.70;;;1.60;;
6495;SDS011;3281;47.658;9.166;2022-10-29T09:00:42;2.53;;;2.33;;
6495;SDS011;3281;47.658;9.166;2022-10-29T09:03:10;3.07;;;1.43;;
6495;SDS011;3281;47.658;9.166;2022-10-29T09:05:42;2.80;;;2.60;;
6495;SDS011;3281;47.658;9.166;2022-10-29T09:08:19;2.60;;;2.20;;
6495;SDS011;3281;47.658;9.166;2022-10-29T09:10:56;1.37;;;1.37;;
6495;SDS011;3281;47.658;9.166;2022-10-29T09:13:32;4.70;;;2.00;;
6495;SDS011;3281;47.658;9.166;2022-10-29T09:16:17;2.17;;;1.97;;
6495;SDS011;3281;47.658;9.166;2022-10-29T09:18:57;1.80;;;1.70;;
6495;SDS011;3281;47.658;9.166;2022-10-29T09:21:37;1.77;;;1.67;;
6495;SDS011;3281;47.658;9.166;2022-10-29T09:24:10;2.57;;;2.37;;
6495;SDS011;3281;47.658;9.166;2022-10-29T09:26:42;4.60;;;3.17;;
6495;SDS011;3281;47.658;9.166;2022-10-29T09:29:24;2.07;;;1.83;;
6495;SDS011;3281;47.658;9.166;2022-10-29T09:32:01;1.43;;;1.37;;
6495;SDS011;3281;47.658;9.166;2022-10-29T09:34:31;1.90;;;1.80;;
6495;SDS011;3281;47.658;9.166;2022-10-29T09:37:08;2.63;;;2.23;;
6495;SDS011;3281;47.658;9.166;2022-10-29T09:39:39;2.10;;;1.40;;
6495;SDS011;3281;47.658;9.166;2022-10-29T09:42:09;3.83;;;2.50;;
6495;SDS011;3281;47.658;9.166;2022-10-29T09:44:42;1.47;;;1.37;;
6495;SDS011;3281;47.658;9.166;2022-10-29T09:47:15;1.30;;;1.20;;
6495;SDS011;3281;47.658;9.166;2022-10-29T09:49:55;1.77;;;1.67;;
6495;SDS011;3281;47.658;9.166;2022-10-29T09:52:33;1.73;;;1.63;;
6495;SDS011;3281;47.658;9.166;2022-10-29T09:55:02;0.00;;;0.00;;
6495;SDS011;3281;47.658;9.166;2022-10-29T09:57:33;0.00;;;0.00;;
6495;SDS011;3281;47.658;9.166;2022-10-29T10:00:03;0.00;;;0.00;;
6495;SDS011;3281;47.658;9.166;2022-10-29T10:02:32;0.00;;;0.00;;
6495;SDS011;3281;47.658;9.166;2022-10-29T10:05:03;0.00;;;0.00;;
6495;SDS011;3281;47.658;9.166;2022-10-29T10:07:33;0.00;;;0.00;;
6495;SDS011;3281;47.658;9.166;2022-10-29T10:10:00;0.00;;;0.00;;
6495;SDS011;3281;47.658;9.166;2022-10-29T10:12:42;0.00;;;0.00;;
6495;SDS011;3281;47.658;9.166;2022-10-29T10:15:16;0.00;;;0.00;;
6495;SDS011;3281;47.658;9.166;2022-10-29T10:17:58;0.00;;;0.00;;
6495;SDS011;3281;47.658;9.166;2022-10-29T10:20:27;0.00;;;0.00;;
6495;SDS011;3281;47.658;9.166;2022-10-29T10:23:00;0.00;;;0.00;;
6495;SDS011;3281;47.658;9.166;2022-10-29T10:25:31;0.00;;;0.00;;
6495;SDS011;3281;47.658;9.166;2022-10-29T10:28:02;0.00;;;0.00;;
6495;SDS011;3281;47.658;9.166;2022-10-29T10:30:30;0.00;;;0.00;;
6495;SDS011;3281;47.658;9.166;2022-10-29T10:33:04;0.00;;;0.00;;
6495;SDS011;3281;47.658;9.166;2022-10-29T10:35:37;0.00;;;0.00;;
6495;SDS011;3281;47.658;9.166;2022-10-29T10:38:08;0.00;;;0.00;;
6495;SDS011;3281;47.658;9.166;2022-10-29T10:40:37;0.00;;;0.00;;
6495;SDS011;3281;47.658;9.166;2022-10-29T10:43:04;0.00;;;0.00;;
6495;SDS011;3281;47.658;9.166;2022-10-29T10:45:32;0.00;;;0.00;;
6495;SDS011;3281;47.658;9.166;2022-10-29T10:48:01;0.00;;;0.00;;
6495;SDS011;3281;47.658;9.166;2022-10-29T10:50:32;0.00;;;0.00;;
6495;SDS011;3281;47.658;9.166;2022-10-29T10:53:01;0.00;;;0.00;;
6495;SDS011;3281;47.658;9.166;2022-10-29T10:55:32;0.00;;;0.00;;
6495;SDS011;3281;47.658;9.166;2022-10-29T10:58:04;0.00;;;0.00;;
6495;SDS011;3281;47.658;9.166;2022-10-29T11:00:35;0.00;;;0.00;;
6495;SDS011;3281;47.658;9.166;2022-10-29T11:03:08;0.00;;;0.00;;
6495;SDS011;3281;47.658;9.166;2022-10-29T11:05:40;0.00;;;0.00;;
6495;SDS011;3281;47.658;9.166;2022-10-29T11:08:11;0.00;;;0.00;;
6495;SDS011;3281;47.658;9.166;2022-10-29T11:10:47;0.00;;;0.00;;
6495;SDS011;3281;47.658;9.166;2022-10-29T11:13:18;0.00;;;0.00;;
6495;SDS011;3281;47.658;9.166;2022-10-29T11:15:48;0.00;;;0.00;;
6495;SDS011;3281;47.658;9.166;2022-10-29T11:18:19;0.00;;;0.00;;
6495;SDS011;3281;47.658;9.166;2022-10-29T11:20:53;0.00;;;0.00;;
6495;SDS011;3281;47.658;9.166;2022-10-29T11:23:30;0.00;;;0.00;;
6495;SDS011;3281;47.658;9.166;2022-10-29T11:26:06;0.00;;;0.00;;
6495;SDS011;3281;47.658;9.166;2022-10-29T11:28:38;0.00;;;0.00;;
6495;SDS011;3281;47.658;9.166;2022-10-29T11:31:14;0.00;;;0.00;;
6495;SDS011;3281;47.658;9.166;2022-10-29T11:33:49;0.00;;;0.00;;
6495;SDS011;3281;47.658;9.166;2022-10-29T11:36:22;0.00;;;0.00;;
6495;SDS011;3281;47.658;9.166;2022-10-29T11:38:53;0.00;;;0.00;;
6495;SDS011;3281;47.658;9.166;2022-10-29T11:41:27;0.00;;;0.00;;
6495;SDS011;3281;47.658;9.166;2022-10-29T11:43:59;0.00;;;0.00;;
6495;SDS011;3281;47.658;9.166;2022-10-29T11:46:31;0.00;;;0.00;;
6495;SDS011;3281;47.658;9.166;2022-10-29T11:49:08;0.00;;;0.00;;
6495;SDS011;3281;47.658;9.166;2022-10-29T11:51:45;0.00;;;0.00;;
6495;SDS011;3281;47.658;9.166;2022-10-29T11:54:24;0.00;;;0.00;;
6495;SDS011;3281;47.658;9.166;2022-10-29T11:57:02;0.00;;;0.00;;
6495;SDS011;3281;47.658;9.166;2022-10-29T11:59:38;0.00;;;0.00;;
6495;SDS011;3281;47.658;9.166;2022-10-29T12:02:19;0.00;;;0.00;;
6495;SDS011;3281;47.658;9.166;2022-10-29T12:04:56;0.00;;;0.00;;
6495;SDS011;3281;47.658;9.166;2022-10-29T12:07:31;0.00;;;0.00;;
6495;SDS011;3281;47.658;9.166;2022-10-29T12:10:28;0.00;;;0.00;;
6495;SDS011;3281;47.658;9.166;2022-10-29T12:13:07;0.00;;;0.00;;
6495;SDS011;3281;47.658;9.166;2022-10-29T12:15:41;0.00;;;0.00;;
6495;SDS011;3281;47.658;9.166;2022-10-29T12:18:15;0.00;;;0.00;;
6495;SDS011;3281;47.658;9.166;2022-10-29T12:20:49;0.00;;;0.00;;
6495;SDS011;3281;47.658;9.166;2022-10-29T12:23:23;0.00;;;0.00;;
6495;SDS011;3281;47.658;9.166;2022-10-29T12:26:00;0.00;;;0.00;;
6495;SDS011;3281;47.658;9.166;2022-10-29T12:28:35;0.00;;;0.00;;
6495;SDS011;3281;47.658;9.166;2022-10-29T12:31:12;0.00;;;0.00;;
6495;SDS011;3281;47.658;9.166;2022-10-29T12:33:48;0.00;;;0.00;;
6495;SDS011;3281;47.658;9.166;2022-10-29T12:36:21;0.00;;;0.00;;
6495;SDS011;3281;47.658;9.166;2022-10-29T12:38:54;0.00;;;0.00;;
6495;SDS011;3281;47.658;9.166;2022-10-29T12:41:22;0.00;;;0.00;;
6495;SDS011;3281;47.658;9.166;2022-10-29T12:43:57;0.00;;;0.00;;
6495;SDS011;3281;47.658;9.166;2022-10-29T12:46:30;0.00;;;0.00;;
6495;SDS011;3281;47.658;9.166;2022-10-29T12:49:04;0.00;;;0.00;;
6495;SDS011;3281;47.658;9.166;2022-10-29T12:51:38;0.00;;;0.00;;
6495;SDS011;3281;47.658;9.166;2022-10-29T12:54:14;0.00;;;0.00;;
6495;SDS011;3281;47.658;9.166;2022-10-29T12:56:46;0.00;;;0.00;;
6495;SDS011;3281;47.658;9.166;2022-10-29T12:59:34;0.00;;;0.00;;
6495;SDS011;3281;47.658;9.166;2022-10-29T13:02:18;0.00;;;0.00;;
6495;SDS011;3281;47.658;9.166;2022-10-29T13:10:56;0.00;;;0.00;;
6495;SDS011;3281;47.658;9.166;2022-10-29T13:16:25;0.00;;;0.00;;
6495;SDS011;3281;47.658;9.166;2022-10-29T13:18:59;0.00;;;0.00;;
6495;SDS011;3281;47.658;9.166;2022-10-29T13:24:32;0.00;;;0.00;;
6495;SDS011;3281;47.658;9.166;2022-10-29T13:27:03;0.00;;;0.00;;
6495;SDS011;3281;47.658;9.166;2022-10-29T13:30:16;0.00;;;0.00;;
6495;SDS011;3281;47.658;9.166;2022-10-29T13:32:48;0.00;;;0.00;;
6495;SDS011;3281;47.658;9.166;2022-10-29T13:38:14;0.00;;;0.00;;
6495;SDS011;3281;47.658;9.166;2022-10-29T13:43:36;0.00;;;0.00;;
6495;SDS011;3281;47.658;9.166;2022-10-29T13:49:11;0.00;;;0.00;;
6495;SDS011;3281;47.658;9.166;2022-10-29T13:51:47;0.00;;;0.00;;
6495;SDS011;3281;47.658;9.166;2022-10-29T13:54:29;0.00;;;0.00;;
6495;SDS011;3281;47.658;9.166;2022-10-29T13:57:03;0.00;;;0.00;;
6495;SDS011;3281;47.658;9.166;2022-10-29T13:59:35;0.00;;;0.00;;
6495;SDS011;3281;47.658;9.166;2022-10-29T14:04:57;0.00;;;0.00;;
6495;SDS011;3281;47.658;9.166;2022-10-29T14:07:29;0.00;;;0.00;;
6495;SDS011;3281;47.658;9.166;2022-10-29T14:10:05;0.00;;;0.00;;
6495;SDS011;3281;47.658;9.166;2022-10-29T14:12:38;0.00;;;0.00;;
6495;SDS011;3281;47.658;9.166;2022-10-29T14:15:07;0.00;;;0.00;;
6495;SDS011;3281;47.658;9.166;2022-10-29T14:17:35;0.00;;;0.00;;
6495;SDS011;3281;47.658;9.166;2022-10-29T14:20:17;0.00;;;0.00;;
6495;SDS011;3281;47.658;9.166;2022-10-29T14:22:45;0.00;;;0.00;;
6495;SDS011;3281;47.658;9.166;2022-10-29T14:28:16;0.00;;;0.00;;
6495;SDS011;3281;47.658;9.166;2022-10-29T14:30:45;0.00;;;0.00;;
6495;SDS011;3281;47.658;9.166;2022-10-29T14:33:17;0.00;;;0.00;;
6495;SDS011;3281;47.658;9.166;2022-10-29T14:35:48;0.00;;;0.00;;
6495;SDS011;3281;47.658;9.166;2022-10-29T14:38:16;0.00;;;0.00;;
6495;SDS011;3281;47.658;9.166;2022-10-29T14:40:46;0.00;;;0.00;;
6495;SDS011;3281;47.658;9.166;2022-10-29T14:43:17;0.00;;;0.00;;
6495;SDS011;3281;47.658;9.166;2022-10-29T14:45:47;0.00;;;0.00;;
6495;SDS011;3281;47.658;9.166;2022-10-29T14:48:14;0.00;;;0.00;;
6495;SDS011;3281;47.658;9.166;2022-10-29T14:50:43;0.00;;;0.00;;
6495;SDS011;3281;47.658;9.166;2022-10-29T14:53:23;0.00;;;0.00;;
6495;SDS011;3281;47.658;9.166;2022-10-29T14:55:54;0.00;;;0.00;;
6495;SDS011;3281;47.658;9.166;2022-10-29T14:58:22;0.00;;;0.00;;
6495;SDS011;3281;47.658;9.166;2022-10-29T15:00:53;0.00;;;0.00;;
6495;SDS011;3281;47.658;9.166;2022-10-29T15:03:22;0.00;;;0.00;;
6495;SDS011;3281;47.658;9.166;2022-10-29T15:05:51;0.00;;;0.00;;
6495;SDS011;3281;47.658;9.166;2022-10-29T15:08:38;0.00;;;0.00;;
6495;SDS011;3281;47.658;9.166;2022-10-29T15:11:25;0.00;;;0.00;;
6495;SDS011;3281;47.658;9.166;2022-10-29T15:13:58;0.00;;;0.00;;
6495;SDS011;3281;47.658;9.166;2022-10-29T15:16:25;0.00;;;0.00;;
6495;SDS011;3281;47.658;9.166;2022-10-29T15:18:52;0.00;;;0.00;;
6495;SDS011;3281;47.658;9.166;2022-10-29T15:21:21;0.00;;;0.00;;
6495;SDS011;3281;47.658;9.166;2022-10-29T15:23:51;0.00;;;0.00;;
6495;SDS011;3281;47.658;9.166;2022-10-29T15:26:23;0.00;;;0.00;;
6495;SDS011;3281;47.658;9.166;2022-10-29T15:28:50;0.00;;;0.00;;
6495;SDS011;3281;47.658;9.166;2022-10-29T15:31:19;0.00;;;0.00;;
6495;SDS011;3281;47.658;9.166;2022-10-29T15:33:48;0.00;;;0.00;;
6495;SDS011;3281;47.658;9.166;2022-10-29T15:36:16;0.00;;;0.00;;
6495;SDS011;3281;47.658;9.166;2022-10-29T15:41:38;0.00;;;0.00;;
6495;SDS011;3281;47.658;9.166;2022-10-29T15:44:27;0.00;;;0.00;;
6495;SDS011;3281;47.658;9.166;2022-10-29T15:46:56;0.00;;;0.00;;
6495;SDS011;3281;47.658;9.166;2022-10-29T15:49:24;0.00;;;0.00;;
6495;SDS011;3281;47.658;9.166;2022-10-29T15:51:51;0.00;;;0.00;;
6495;SDS011;3281;47.658;9.166;2022-10-29T15:54:18;0.00;;;0.00;;
6495;SDS011;3281;47.658;9.166;2022-10-29T15:56:47;0.00;;;0.00;;
6495;SDS011;3281;47.658;9.166;2022-10-29T15:59:15;0.00;;;0.00;;
6495;SDS011;3281;47.658;9.166;2022-10-29T16:01:48;0.00;;;0.00;;
6495;SDS011;3281;47.658;9.166;2022-10-29T16:04:14;0.00;;;0.00;;
6495;SDS011;3281;47.658;9.166;2022-10-29T16:06:41;0.00;;;0.00;;
6495;SDS011;3281;47.658;9.166;2022-10-29T16:09:08;0.00;;;0.00;;